sensor_id;sensor_type;location;lat;lon;timestamp;P1;durP1;ratioP1;P2;durP2;ratioP2
15043;SDS011;7619;48.562;8.910;2023-02-28T00:01:22;1.97;;;1.17;;
15043;SDS011;7619;48.562;8.910;2023-02-28T00:03:51;4.33;;;1.50;;
15043;SDS011;7619;48.562;8.910;2023-02-28T00:06:19;2.60;;;1.27;;
15043;SDS011;7619;48.562;8.910;2023-02-28T00:08:47;3.33;;;1.70;;
15043;SDS011;7619;48.562;8.910;2023-02-28T00:11:15;1.27;;;1.17;;
15043;SDS011;7619;48.562;8.910;2023-02-28T00:13:44;3.83;;;1.47;;
15043;SDS011;7619;48.562;8.910;2023-02-28T00:16:14;1.43;;;1.23;;
15043;SDS011;7619;48.562;8.910;2023-02-28T00:18:44;1.30;;;1.20;;
15043;SDS011;7619;48.562;8.910;2023-02-28T00:21:14;1.90;;;1.47;;
15043;SDS011;7619;48.562;8.910;2023-02-28T00:23:45;1.60;;;1.50;;
15043;SDS011;7619;48.562;8.910;2023-02-28T00:26:13;2.17;;;1.57;;
15043;SDS011;7619;48.562;8.910;2023-02-28T00:28:42;2.67;;;1.97;;
15043;SDS011;7619;48.562;8.910;2023-02-28T00:31:10;2.93;;;1.63;;
15043;SDS011;7619;48.562;8.910;2023-02-28T00:33:38;1.87;;;1.13;;
15043;SDS011;7619;48.562;8.910;2023-02-28T00:36:07;3.03;;;1.87;;
15043;SDS011;7619;48.562;8.910;2023-02-28T00:38:35;2.20;;;1.27;;
15043;SDS011;7619;48.562;8.910;2023-02-28T00:41:03;3.10;;;1.20;;
15043;SDS011;7619;48.562;8.910;2023-02-28T00:43:33;2.33;;;1.60;;
15043;SDS011;7619;48.562;8.910;2023-02-28T00:46:00;2.37;;;1.73;;
15043;SDS011;7619;48.562;8.910;2023-02-28T00:48:30;1.63;;;1.50;;
15043;SDS011;7619;48.562;8.910;2023-02-28T00:51:00;1.60;;;1.00;;
15043;SDS011;7619;48.562;8.910;2023-02-28T00:53:28;2.33;;;1.40;;
15043;SDS011;7619;48.562;8.910;2023-02-28T00:55:56;1.63;;;1.20;;
15043;SDS011;7619;48.562;8.910;2023-02-28T00:58:24;2.37;;;1.50;;
15043;SDS011;7619;48.562;8.910;2023-02-28T01:00:53;1.73;;;1.50;;
15043;SDS011;7619;48.562;8.910;2023-02-28T01:03:22;1.67;;;1.13;;
15043;SDS011;7619;48.562;8.910;2023-02-28T01:05:51;2.77;;;1.67;;
15043;SDS011;7619;48.562;8.910;2023-02-28T01:08:20;3.90;;;1.73;;
15043;SDS011;7619;48.562;8.910;2023-02-28T01:10:48;2.37;;;1.70;;
15043;SDS011;7619;48.562;8.910;2023-02-28T01:13:16;1.20;;;1.10;;
15043;SDS011;7619;48.562;8.910;2023-02-28T01:15:45;1.53;;;1.27;;
15043;SDS011;7619;48.562;8.910;2023-02-28T01:18:14;3.97;;;1.90;;
15043;SDS011;7619;48.562;8.910;2023-02-28T01:20:43;2.43;;;1.50;;
15043;SDS011;7619;48.562;8.910;2023-02-28T01:23:12;3.73;;;1.40;;
15043;SDS011;7619;48.562;8.910;2023-02-28T01:25:40;3.73;;;1.60;;
15043;SDS011;7619;48.562;8.910;2023-02-28T01:28:08;5.17;;;1.70;;
15043;SDS011;7619;48.562;8.910;2023-02-28T01:30:36;1.93;;;1.60;;
15043;SDS011;7619;48.562;8.910;2023-02-28T01:33:05;1.30;;;1.03;;
15043;SDS011;7619;48.562;8.910;2023-02-28T01:35:34;3.90;;;1.53;;
15043;SDS011;7619;48.562;8.910;2023-02-28T01:38:01;2.53;;;1.27;;
15043;SDS011;7619;48.562;8.910;2023-02-28T01:40:30;2.27;;;1.50;;
15043;SDS011;7619;48.562;8.910;2023-02-28T01:42:59;1.27;;;1.17;;
15043;SDS011;7619;48.562;8.910;2023-02-28T01:45:28;1.30;;;1.20;;
15043;SDS011;7619;48.562;8.910;2023-02-28T01:47:58;3.97;;;2.17;;
15043;SDS011;7619;48.562;8.910;2023-02-28T01:50:31;2.20;;;1.67;;
15043;SDS011;7619;48.562;8.910;2023-02-28T01:53:00;3.30;;;1.97;;
15043;SDS011;7619;48.562;8.910;2023-02-28T01:55:28;1.77;;;1.57;;
15043;SDS011;7619;48.562;8.910;2023-02-28T01:57:59;1.80;;;1.40;;
15043;SDS011;7619;48.562;8.910;2023-02-28T02:00:30;2.87;;;1.20;;
15043;SDS011;7619;48.562;8.910;2023-02-28T02:03:00;1.60;;;1.07;;
15043;SDS011;7619;48.562;8.910;2023-02-28T02:05:30;2.00;;;1.70;;
15043;SDS011;7619;48.562;8.910;2023-02-28T02:08:01;1.27;;;0.97;;
15043;SDS011;7619;48.562;8.910;2023-02-28T02:10:29;1.67;;;1.10;;
15043;SDS011;7619;48.562;8.910;2023-02-28T02:13:01;1.30;;;1.20;;
15043;SDS011;7619;48.562;8.910;2023-02-28T02:15:46;1.50;;;1.17;;
15043;SDS011;7619;48.562;8.910;2023-02-28T02:18:17;1.40;;;1.13;;
15043;SDS011;7619;48.562;8.910;2023-02-28T02:20:49;2.90;;;1.80;;
15043;SDS011;7619;48.562;8.910;2023-02-28T02:23:42;4.90;;;1.57;;
15043;SDS011;7619;48.562;8.910;2023-02-28T02:26:16;2.50;;;1.57;;
15043;SDS011;7619;48.562;8.910;2023-02-28T02:28:54;1.77;;;1.50;;
15043;SDS011;7619;48.562;8.910;2023-02-28T02:34:24;2.17;;;1.53;;
15043;SDS011;7619;48.562;8.910;2023-02-28T02:36:53;1.63;;;1.53;;
15043;SDS011;7619;48.562;8.910;2023-02-28T02:39:27;1.00;;;1.00;;
15043;SDS011;7619;48.562;8.910;2023-02-28T02:42:00;3.40;;;1.43;;
15043;SDS011;7619;48.562;8.910;2023-02-28T02:44:31;3.40;;;1.40;;
15043;SDS011;7619;48.562;8.910;2023-02-28T02:47:05;2.17;;;1.80;;
15043;SDS011;7619;48.562;8.910;2023-02-28T02:49:36;2.40;;;1.07;;
15043;SDS011;7619;48.562;8.910;2023-02-28T02:52:14;2.20;;;1.73;;
15043;SDS011;7619;48.562;8.910;2023-02-28T02:54:45;2.43;;;1.60;;
15043;SDS011;7619;48.562;8.910;2023-02-28T02:57:17;1.70;;;1.30;;
15043;SDS011;7619;48.562;8.910;2023-02-28T02:59:49;3.20;;;1.77;;
15043;SDS011;7619;48.562;8.910;2023-02-28T03:02:17;1.40;;;1.30;;
15043;SDS011;7619;48.562;8.910;2023-02-28T03:04:46;3.90;;;1.63;;
15043;SDS011;7619;48.562;8.910;2023-02-28T03:07:15;6.57;;;1.77;;
15043;SDS011;7619;48.562;8.910;2023-02-28T03:09:49;5.93;;;2.47;;
15043;SDS011;7619;48.562;8.910;2023-02-28T03:12:17;1.87;;;1.67;;
15043;SDS011;7619;48.562;8.910;2023-02-28T03:14:51;3.33;;;1.47;;
15043;SDS011;7619;48.562;8.910;2023-02-28T03:17:30;3.10;;;1.80;;
15043;SDS011;7619;48.562;8.910;2023-02-28T03:20:02;1.80;;;1.43;;
15043;SDS011;7619;48.562;8.910;2023-02-28T03:22:55;2.27;;;1.40;;
15043;SDS011;7619;48.562;8.910;2023-02-28T03:25:29;3.47;;;2.00;;
15043;SDS011;7619;48.562;8.910;2023-02-28T03:28:00;4.03;;;2.30;;
15043;SDS011;7619;48.562;8.910;2023-02-28T03:30:35;2.07;;;1.63;;
15043;SDS011;7619;48.562;8.910;2023-02-28T03:33:08;5.37;;;2.47;;
15043;SDS011;7619;48.562;8.910;2023-02-28T03:35:41;2.80;;;1.93;;
15043;SDS011;7619;48.562;8.910;2023-02-28T03:38:11;1.80;;;1.63;;
15043;SDS011;7619;48.562;8.910;2023-02-28T03:40:42;4.70;;;1.83;;
15043;SDS011;7619;48.562;8.910;2023-02-28T03:43:12;3.70;;;2.23;;
15043;SDS011;7619;48.562;8.910;2023-02-28T03:45:40;3.07;;;2.00;;
15043;SDS011;7619;48.562;8.910;2023-02-28T03:48:10;5.27;;;2.43;;
15043;SDS011;7619;48.562;8.910;2023-02-28T03:50:42;2.90;;;1.53;;
15043;SDS011;7619;48.562;8.910;2023-02-28T03:53:11;1.57;;;1.43;;
15043;SDS011;7619;48.562;8.910;2023-02-28T03:55:43;1.73;;;1.50;;
15043;SDS011;7619;48.562;8.910;2023-02-28T03:58:15;3.27;;;2.27;;
15043;SDS011;7619;48.562;8.910;2023-02-28T04:00:48;3.60;;;2.10;;
15043;SDS011;7619;48.562;8.910;2023-02-28T04:03:20;5.87;;;2.07;;
15043;SDS011;7619;48.562;8.910;2023-02-28T04:05:49;4.30;;;2.10;;
15043;SDS011;7619;48.562;8.910;2023-02-28T04:08:19;4.57;;;2.27;;
15043;SDS011;7619;48.562;8.910;2023-02-28T04:10:50;3.70;;;2.13;;
15043;SDS011;7619;48.562;8.910;2023-02-28T04:13:23;4.63;;;2.17;;
15043;SDS011;7619;48.562;8.910;2023-02-28T04:15:51;3.47;;;2.03;;
15043;SDS011;7619;48.562;8.910;2023-02-28T04:18:19;2.07;;;1.80;;
15043;SDS011;7619;48.562;8.910;2023-02-28T04:20:47;2.70;;;2.27;;
15043;SDS011;7619;48.562;8.910;2023-02-28T04:23:15;2.17;;;1.80;;
15043;SDS011;7619;48.562;8.910;2023-02-28T04:25:43;2.07;;;1.80;;
15043;SDS011;7619;48.562;8.910;2023-02-28T04:28:11;5.83;;;2.30;;
15043;SDS011;7619;48.562;8.910;2023-02-28T04:30:39;2.90;;;2.30;;
15043;SDS011;7619;48.562;8.910;2023-02-28T04:33:07;2.73;;;1.90;;
15043;SDS011;7619;48.562;8.910;2023-02-28T04:35:35;2.57;;;2.03;;
15043;SDS011;7619;48.562;8.910;2023-02-28T04:38:04;8.67;;;3.07;;
15043;SDS011;7619;48.562;8.910;2023-02-28T04:40:32;2.40;;;1.90;;
15043;SDS011;7619;48.562;8.910;2023-02-28T04:42:59;3.10;;;1.93;;
15043;SDS011;7619;48.562;8.910;2023-02-28T04:45:30;3.93;;;2.53;;
15043;SDS011;7619;48.562;8.910;2023-02-28T04:48:00;2.10;;;1.97;;
15043;SDS011;7619;48.562;8.910;2023-02-28T04:50:27;4.57;;;2.50;;
15043;SDS011;7619;48.562;8.910;2023-02-28T04:52:56;3.30;;;1.87;;
15043;SDS011;7619;48.562;8.910;2023-02-28T04:55:26;3.70;;;2.50;;
15043;SDS011;7619;48.562;8.910;2023-02-28T04:57:54;4.70;;;2.77;;
15043;SDS011;7619;48.562;8.910;2023-02-28T05:00:22;3.37;;;2.40;;
15043;SDS011;7619;48.562;8.910;2023-02-28T05:02:50;3.90;;;2.53;;
15043;SDS011;7619;48.562;8.910;2023-02-28T05:05:18;3.40;;;2.53;;
15043;SDS011;7619;48.562;8.910;2023-02-28T05:07:47;3.63;;;2.40;;
15043;SDS011;7619;48.562;8.910;2023-02-28T05:10:16;5.50;;;2.70;;
15043;SDS011;7619;48.562;8.910;2023-02-28T05:12:45;5.90;;;2.80;;
15043;SDS011;7619;48.562;8.910;2023-02-28T05:15:15;2.67;;;2.40;;
15043;SDS011;7619;48.562;8.910;2023-02-28T05:17:45;2.90;;;2.60;;
15043;SDS011;7619;48.562;8.910;2023-02-28T05:20:13;4.63;;;2.37;;
15043;SDS011;7619;48.562;8.910;2023-02-28T05:22:41;3.03;;;2.37;;
15043;SDS011;7619;48.562;8.910;2023-02-28T05:25:11;2.70;;;1.97;;
15043;SDS011;7619;48.562;8.910;2023-02-28T05:27:39;5.10;;;2.83;;
15043;SDS011;7619;48.562;8.910;2023-02-28T05:30:10;3.77;;;3.03;;
15043;SDS011;7619;48.562;8.910;2023-02-28T05:32:38;4.80;;;2.87;;
15043;SDS011;7619;48.562;8.910;2023-02-28T05:35:09;5.17;;;3.17;;
15043;SDS011;7619;48.562;8.910;2023-02-28T05:37:37;5.80;;;3.00;;
15043;SDS011;7619;48.562;8.910;2023-02-28T05:40:07;3.93;;;2.70;;
15043;SDS011;7619;48.562;8.910;2023-02-28T05:42:37;4.20;;;2.67;;
15043;SDS011;7619;48.562;8.910;2023-02-28T05:45:07;3.63;;;2.47;;
15043;SDS011;7619;48.562;8.910;2023-02-28T05:47:35;2.50;;;2.30;;
15043;SDS011;7619;48.562;8.910;2023-02-28T05:50:05;3.70;;;2.47;;
15043;SDS011;7619;48.562;8.910;2023-02-28T05:52:37;3.73;;;3.10;;
15043;SDS011;7619;48.562;8.910;2023-02-28T05:55:06;5.13;;;2.80;;
15043;SDS011;7619;48.562;8.910;2023-02-28T05:57:33;2.97;;;2.50;;
15043;SDS011;7619;48.562;8.910;2023-02-28T06:00:03;6.80;;;3.20;;
15043;SDS011;7619;48.562;8.910;2023-02-28T06:02:34;7.50;;;3.10;;
15043;SDS011;7619;48.562;8.910;2023-02-28T06:05:02;5.17;;;3.23;;
15043;SDS011;7619;48.562;8.910;2023-02-28T06:07:30;4.73;;;3.17;;
15043;SDS011;7619;48.562;8.910;2023-02-28T06:09:58;5.77;;;3.17;;
15043;SDS011;7619;48.562;8.910;2023-02-28T06:12:26;6.47;;;3.13;;
15043;SDS011;7619;48.562;8.910;2023-02-28T06:14:54;4.00;;;3.23;;
15043;SDS011;7619;48.562;8.910;2023-02-28T06:17:22;5.27;;;3.47;;
15043;SDS011;7619;48.562;8.910;2023-02-28T06:19:51;4.17;;;3.13;;
15043;SDS011;7619;48.562;8.910;2023-02-28T06:22:20;5.23;;;3.20;;
15043;SDS011;7619;48.562;8.910;2023-02-28T06:24:48;7.03;;;3.63;;
15043;SDS011;7619;48.562;8.910;2023-02-28T06:27:16;3.70;;;2.93;;
15043;SDS011;7619;48.562;8.910;2023-02-28T06:29:46;3.63;;;2.80;;
15043;SDS011;7619;48.562;8.910;2023-02-28T06:32:13;4.73;;;3.30;;
15043;SDS011;7619;48.562;8.910;2023-02-28T06:34:43;5.43;;;3.67;;
15043;SDS011;7619;48.562;8.910;2023-02-28T06:37:10;3.67;;;3.07;;
15043;SDS011;7619;48.562;8.910;2023-02-28T06:39:39;4.97;;;3.47;;
15043;SDS011;7619;48.562;8.910;2023-02-28T06:42:08;4.53;;;3.27;;
15043;SDS011;7619;48.562;8.910;2023-02-28T06:44:38;6.50;;;3.90;;
15043;SDS011;7619;48.562;8.910;2023-02-28T06:47:05;3.77;;;3.07;;
15043;SDS011;7619;48.562;8.910;2023-02-28T06:49:35;3.30;;;2.43;;
15043;SDS011;7619;48.562;8.910;2023-02-28T06:52:03;4.87;;;3.30;;
15043;SDS011;7619;48.562;8.910;2023-02-28T06:54:31;6.17;;;3.37;;
15043;SDS011;7619;48.562;8.910;2023-02-28T06:57:00;3.43;;;3.13;;
15043;SDS011;7619;48.562;8.910;2023-02-28T06:59:29;8.83;;;4.07;;
15043;SDS011;7619;48.562;8.910;2023-02-28T07:01:57;4.77;;;3.63;;
15043;SDS011;7619;48.562;8.910;2023-02-28T07:04:25;5.63;;;3.90;;
15043;SDS011;7619;48.562;8.910;2023-02-28T07:06:54;5.23;;;3.30;;
15043;SDS011;7619;48.562;8.910;2023-02-28T07:09:23;4.00;;;2.93;;
15043;SDS011;7619;48.562;8.910;2023-02-28T07:11:54;5.23;;;3.60;;
15043;SDS011;7619;48.562;8.910;2023-02-28T07:14:23;5.80;;;4.27;;
15043;SDS011;7619;48.562;8.910;2023-02-28T07:16:51;5.93;;;4.03;;
15043;SDS011;7619;48.562;8.910;2023-02-28T07:19:19;6.03;;;4.10;;
15043;SDS011;7619;48.562;8.910;2023-02-28T07:21:48;5.43;;;3.83;;
15043;SDS011;7619;48.562;8.910;2023-02-28T07:24:15;4.60;;;3.27;;
15043;SDS011;7619;48.562;8.910;2023-02-28T07:26:44;5.77;;;4.07;;
15043;SDS011;7619;48.562;8.910;2023-02-28T07:29:14;8.70;;;4.37;;
15043;SDS011;7619;48.562;8.910;2023-02-28T07:31:42;7.13;;;4.33;;
15043;SDS011;7619;48.562;8.910;2023-02-28T07:34:10;7.03;;;4.97;;
15043;SDS011;7619;48.562;8.910;2023-02-28T07:36:38;4.90;;;3.30;;
15043;SDS011;7619;48.562;8.910;2023-02-28T07:39:06;5.27;;;4.03;;
15043;SDS011;7619;48.562;8.910;2023-02-28T07:41:36;5.80;;;4.13;;
15043;SDS011;7619;48.562;8.910;2023-02-28T07:44:06;5.73;;;3.87;;
15043;SDS011;7619;48.562;8.910;2023-02-28T07:46:34;5.10;;;3.70;;
15043;SDS011;7619;48.562;8.910;2023-02-28T07:49:02;6.63;;;3.80;;
15043;SDS011;7619;48.562;8.910;2023-02-28T07:51:32;6.67;;;3.57;;
15043;SDS011;7619;48.562;8.910;2023-02-28T07:54:00;4.77;;;3.87;;
15043;SDS011;7619;48.562;8.910;2023-02-28T07:56:28;6.70;;;4.13;;
15043;SDS011;7619;48.562;8.910;2023-02-28T07:58:56;6.30;;;4.00;;
15043;SDS011;7619;48.562;8.910;2023-02-28T08:01:24;6.10;;;4.97;;
15043;SDS011;7619;48.562;8.910;2023-02-28T08:03:53;6.57;;;3.63;;
15043;SDS011;7619;48.562;8.910;2023-02-28T08:06:23;6.43;;;3.80;;
15043;SDS011;7619;48.562;8.910;2023-02-28T08:08:53;4.30;;;3.30;;
15043;SDS011;7619;48.562;8.910;2023-02-28T08:11:22;8.07;;;4.93;;
15043;SDS011;7619;48.562;8.910;2023-02-28T08:13:50;6.47;;;4.60;;
15043;SDS011;7619;48.562;8.910;2023-02-28T08:16:18;10.30;;;4.23;;
15043;SDS011;7619;48.562;8.910;2023-02-28T08:18:49;6.90;;;4.10;;
15043;SDS011;7619;48.562;8.910;2023-02-28T08:21:17;5.17;;;3.97;;
15043;SDS011;7619;48.562;8.910;2023-02-28T08:23:46;6.73;;;4.60;;
15043;SDS011;7619;48.562;8.910;2023-02-28T08:26:14;6.77;;;3.90;;
15043;SDS011;7619;48.562;8.910;2023-02-28T08:28:42;5.63;;;4.70;;
15043;SDS011;7619;48.562;8.910;2023-02-28T08:31:12;6.87;;;4.33;;
15043;SDS011;7619;48.562;8.910;2023-02-28T08:33:43;7.13;;;4.57;;
15043;SDS011;7619;48.562;8.910;2023-02-28T08:36:11;5.50;;;4.20;;
15043;SDS011;7619;48.562;8.910;2023-02-28T08:38:41;6.43;;;4.27;;
15043;SDS011;7619;48.562;8.910;2023-02-28T08:41:10;6.53;;;5.00;;
15043;SDS011;7619;48.562;8.910;2023-02-28T08:43:38;11.73;;;5.13;;
15043;SDS011;7619;48.562;8.910;2023-02-28T08:46:08;6.40;;;5.03;;
15043;SDS011;7619;48.562;8.910;2023-02-28T08:48:40;8.90;;;4.83;;
15043;SDS011;7619;48.562;8.910;2023-02-28T08:51:08;5.70;;;3.93;;
15043;SDS011;7619;48.562;8.910;2023-02-28T08:53:40;8.33;;;4.80;;
15043;SDS011;7619;48.562;8.910;2023-02-28T08:56:08;7.27;;;5.17;;
15043;SDS011;7619;48.562;8.910;2023-02-28T08:58:38;6.23;;;4.30;;
15043;SDS011;7619;48.562;8.910;2023-02-28T09:01:08;5.90;;;4.17;;
15043;SDS011;7619;48.562;8.910;2023-02-28T09:03:36;4.20;;;3.50;;
15043;SDS011;7619;48.562;8.910;2023-02-28T09:06:07;8.13;;;4.87;;
15043;SDS011;7619;48.562;8.910;2023-02-28T09:08:38;7.37;;;4.33;;
15043;SDS011;7619;48.562;8.910;2023-02-28T09:11:06;8.67;;;5.43;;
15043;SDS011;7619;48.562;8.910;2023-02-28T09:13:34;8.10;;;4.67;;
15043;SDS011;7619;48.562;8.910;2023-02-28T09:16:03;5.47;;;4.43;;
15043;SDS011;7619;48.562;8.910;2023-02-28T09:18:33;6.43;;;4.30;;
15043;SDS011;7619;48.562;8.910;2023-02-28T09:21:04;7.07;;;4.87;;
15043;SDS011;7619;48.562;8.910;2023-02-28T09:23:32;7.33;;;5.17;;
15043;SDS011;7619;48.562;8.910;2023-02-28T09:26:01;10.17;;;5.87;;
15043;SDS011;7619;48.562;8.910;2023-02-28T09:28:30;7.83;;;4.77;;
15043;SDS011;7619;48.562;8.910;2023-02-28T09:31:10;5.37;;;4.47;;
15043;SDS011;7619;48.562;8.910;2023-02-28T09:33:39;8.67;;;4.67;;
15043;SDS011;7619;48.562;8.910;2023-02-28T09:36:08;7.10;;;4.37;;
15043;SDS011;7619;48.562;8.910;2023-02-28T09:38:36;7.87;;;5.17;;
15043;SDS011;7619;48.562;8.910;2023-02-28T09:41:09;8.13;;;4.97;;
15043;SDS011;7619;48.562;8.910;2023-02-28T09:43:35;6.07;;;4.47;;
15043;SDS011;7619;48.562;8.910;2023-02-28T09:46:05;6.40;;;4.17;;
15043;SDS011;7619;48.562;8.910;2023-02-28T09:48:39;8.53;;;5.17;;
15043;SDS011;7619;48.562;8.910;2023-02-28T09:51:14;7.50;;;4.23;;
15043;SDS011;7619;48.562;8.910;2023-02-28T09:56:20;9.00;;;4.63;;
15043;SDS011;7619;48.562;8.910;2023-02-28T09:58:54;5.53;;;4.27;;
15043;SDS011;7619;48.562;8.910;2023-02-28T10:01:25;6.67;;;5.03;;
15043;SDS011;7619;48.562;8.910;2023-02-28T10:03:56;7.43;;;4.73;;
15043;SDS011;7619;48.562;8.910;2023-02-28T10:06:27;6.90;;;6.03;;
15043;SDS011;7619;48.562;8.910;2023-02-28T10:09:00;9.10;;;5.17;;
15043;SDS011;7619;48.562;8.910;2023-02-28T10:11:28;10.57;;;5.57;;
15043;SDS011;7619;48.562;8.910;2023-02-28T10:13:57;8.67;;;5.30;;
15043;SDS011;7619;48.562;8.910;2023-02-28T10:16:29;5.73;;;4.17;;
15043;SDS011;7619;48.562;8.910;2023-02-28T10:19:02;5.50;;;4.67;;
15043;SDS011;7619;48.562;8.910;2023-02-28T10:34:54;8.53;;;5.20;;
15043;SDS011;7619;48.562;8.910;2023-02-28T10:37:26;6.33;;;4.47;;
15043;SDS011;7619;48.562;8.910;2023-02-28T10:39:55;6.03;;;4.40;;
15043;SDS011;7619;48.562;8.910;2023-02-28T10:42:24;8.23;;;5.63;;
15043;SDS011;7619;48.562;8.910;2023-02-28T10:45:11;7.63;;;5.20;;
15043;SDS011;7619;48.562;8.910;2023-02-28T10:47:48;9.00;;;5.90;;
15043;SDS011;7619;48.562;8.910;2023-02-28T10:50:27;7.77;;;5.80;;
15043;SDS011;7619;48.562;8.910;2023-02-28T10:53:24;10.07;;;5.80;;
15043;SDS011;7619;48.562;8.910;2023-02-28T10:55:46;7.67;;;5.77;;
15043;SDS011;7619;48.562;8.910;2023-02-28T10:58:21;6.23;;;5.03;;
15043;SDS011;7619;48.562;8.910;2023-02-28T11:00:51;7.77;;;4.90;;
15043;SDS011;7619;48.562;8.910;2023-02-28T11:03:29;7.40;;;5.30;;
15043;SDS011;7619;48.562;8.910;2023-02-28T11:05:56;6.03;;;4.90;;
15043;SDS011;7619;48.562;8.910;2023-02-28T11:08:26;10.77;;;5.50;;
15043;SDS011;7619;48.562;8.910;2023-02-28T11:10:54;7.17;;;5.33;;
15043;SDS011;7619;48.562;8.910;2023-02-28T11:13:26;8.07;;;5.20;;
15043;SDS011;7619;48.562;8.910;2023-02-28T11:15:54;8.33;;;5.97;;
15043;SDS011;7619;48.562;8.910;2023-02-28T11:18:27;7.67;;;5.77;;
15043;SDS011;7619;48.562;8.910;2023-02-28T11:20:56;7.80;;;5.57;;
15043;SDS011;7619;48.562;8.910;2023-02-28T11:23:25;6.67;;;5.27;;
15043;SDS011;7619;48.562;8.910;2023-02-28T11:25:57;13.00;;;5.27;;
15043;SDS011;7619;48.562;8.910;2023-02-28T11:28:29;6.13;;;5.07;;
15043;SDS011;7619;48.562;8.910;2023-02-28T11:31:01;11.30;;;5.90;;
15043;SDS011;7619;48.562;8.910;2023-02-28T11:33:31;7.37;;;5.50;;
15043;SDS011;7619;48.562;8.910;2023-02-28T11:36:01;6.03;;;5.13;;
15043;SDS011;7619;48.562;8.910;2023-02-28T11:38:30;6.63;;;5.17;;
15043;SDS011;7619;48.562;8.910;2023-02-28T11:41:05;11.23;;;4.93;;
15043;SDS011;7619;48.562;8.910;2023-02-28T11:43:35;7.33;;;5.07;;
15043;SDS011;7619;48.562;8.910;2023-02-28T11:46:08;7.00;;;4.83;;
15043;SDS011;7619;48.562;8.910;2023-02-28T11:48:39;8.27;;;5.80;;
15043;SDS011;7619;48.562;8.910;2023-02-28T11:51:10;7.03;;;4.90;;
15043;SDS011;7619;48.562;8.910;2023-02-28T11:56:36;10.07;;;6.13;;
15043;SDS011;7619;48.562;8.910;2023-02-28T11:59:14;7.40;;;5.47;;
15043;SDS011;7619;48.562;8.910;2023-02-28T12:01:47;11.77;;;5.80;;
15043;SDS011;7619;48.562;8.910;2023-02-28T12:04:25;7.30;;;4.90;;
15043;SDS011;7619;48.562;8.910;2023-02-28T12:06:56;9.70;;;5.50;;
15043;SDS011;7619;48.562;8.910;2023-02-28T12:09:30;8.23;;;4.90;;
15043;SDS011;7619;48.562;8.910;2023-02-28T12:12:23;9.27;;;5.77;;
15043;SDS011;7619;48.562;8.910;2023-02-28T12:15:16;8.80;;;5.27;;
15043;SDS011;7619;48.562;8.910;2023-02-28T12:17:48;7.90;;;6.10;;
15043;SDS011;7619;48.562;8.910;2023-02-28T12:20:24;6.53;;;5.50;;
15043;SDS011;7619;48.562;8.910;2023-02-28T12:22:58;8.67;;;4.93;;
15043;SDS011;7619;48.562;8.910;2023-02-28T12:25:38;7.83;;;5.77;;
15043;SDS011;7619;48.562;8.910;2023-02-28T12:28:15;7.77;;;5.63;;
15043;SDS011;7619;48.562;8.910;2023-02-28T12:30:46;7.63;;;5.70;;
15043;SDS011;7619;48.562;8.910;2023-02-28T12:33:17;6.07;;;5.13;;
15043;SDS011;7619;48.562;8.910;2023-02-28T12:35:47;8.27;;;5.50;;
15043;SDS011;7619;48.562;8.910;2023-02-28T12:38:19;5.53;;;4.93;;
15043;SDS011;7619;48.562;8.910;2023-02-28T12:40:50;7.47;;;5.17;;
15043;SDS011;7619;48.562;8.910;2023-02-28T12:43:22;8.27;;;6.03;;
15043;SDS011;7619;48.562;8.910;2023-02-28T12:46:02;5.70;;;5.00;;
15043;SDS011;7619;48.562;8.910;2023-02-28T12:48:33;6.03;;;4.60;;
15043;SDS011;7619;48.562;8.910;2023-02-28T12:51:01;6.27;;;5.00;;
15043;SDS011;7619;48.562;8.910;2023-02-28T12:53:30;7.63;;;5.47;;
15043;SDS011;7619;48.562;8.910;2023-02-28T12:56:04;6.80;;;5.03;;
15043;SDS011;7619;48.562;8.910;2023-02-28T12:58:33;9.07;;;5.80;;
15043;SDS011;7619;48.562;8.910;2023-02-28T13:01:08;6.53;;;4.97;;
15043;SDS011;7619;48.562;8.910;2023-02-28T13:03:39;8.97;;;5.27;;
15043;SDS011;7619;48.562;8.910;2023-02-28T13:09:09;8.10;;;5.33;;
15043;SDS011;7619;48.562;8.910;2023-02-28T13:11:41;7.00;;;5.00;;
15043;SDS011;7619;48.562;8.910;2023-02-28T13:14:25;7.53;;;5.67;;
15043;SDS011;7619;48.562;8.910;2023-02-28T13:16:55;6.77;;;4.93;;
15043;SDS011;7619;48.562;8.910;2023-02-28T13:19:24;6.27;;;4.97;;
15043;SDS011;7619;48.562;8.910;2023-02-28T13:24:40;8.57;;;5.23;;
15043;SDS011;7619;48.562;8.910;2023-02-28T13:33:05;7.33;;;4.87;;
15043;SDS011;7619;48.562;8.910;2023-02-28T13:36:07;5.33;;;4.40;;
15043;SDS011;7619;48.562;8.910;2023-02-28T13:38:36;10.77;;;5.50;;
15043;SDS011;7619;48.562;8.910;2023-02-28T13:49:49;6.23;;;5.03;;
15043;SDS011;7619;48.562;8.910;2023-02-28T13:52:19;8.27;;;6.20;;
15043;SDS011;7619;48.562;8.910;2023-02-28T13:54:52;9.20;;;6.27;;
15043;SDS011;7619;48.562;8.910;2023-02-28T13:57:25;6.50;;;5.67;;
15043;SDS011;7619;48.562;8.910;2023-02-28T13:59:55;6.33;;;5.27;;
15043;SDS011;7619;48.562;8.910;2023-02-28T14:02:32;8.33;;;5.87;;
15043;SDS011;7619;48.562;8.910;2023-02-28T14:05:01;7.90;;;5.23;;
15043;SDS011;7619;48.562;8.910;2023-02-28T14:07:30;8.03;;;4.70;;
15043;SDS011;7619;48.562;8.910;2023-02-28T14:10:03;7.87;;;5.20;;
15043;SDS011;7619;48.562;8.910;2023-02-28T14:15:28;8.50;;;5.20;;
15043;SDS011;7619;48.562;8.910;2023-02-28T14:18:29;8.57;;;5.80;;
15043;SDS011;7619;48.562;8.910;2023-02-28T14:20:59;8.97;;;6.00;;
15043;SDS011;7619;48.562;8.910;2023-02-28T14:23:42;7.23;;;5.63;;
15043;SDS011;7619;48.562;8.910;2023-02-28T14:26:49;9.20;;;5.73;;
15043;SDS011;7619;48.562;8.910;2023-02-28T14:32:51;7.27;;;4.53;;
15043;SDS011;7619;48.562;8.910;2023-02-28T14:35:26;8.37;;;5.47;;
15043;SDS011;7619;48.562;8.910;2023-02-28T14:37:50;6.23;;;4.97;;
15043;SDS011;7619;48.562;8.910;2023-02-28T14:40:21;6.37;;;4.67;;
15043;SDS011;7619;48.562;8.910;2023-02-28T14:42:55;8.73;;;5.77;;
15043;SDS011;7619;48.562;8.910;2023-02-28T14:45:23;7.10;;;5.70;;
15043;SDS011;7619;48.562;8.910;2023-02-28T14:47:51;8.80;;;5.40;;
15043;SDS011;7619;48.562;8.910;2023-02-28T14:50:20;9.67;;;5.40;;
15043;SDS011;7619;48.562;8.910;2023-02-28T14:52:50;9.57;;;5.93;;
15043;SDS011;7619;48.562;8.910;2023-02-28T14:55:27;8.90;;;5.30;;
15043;SDS011;7619;48.562;8.910;2023-02-28T14:57:52;7.00;;;5.27;;
15043;SDS011;7619;48.562;8.910;2023-02-28T15:00:22;8.73;;;6.00;;
15043;SDS011;7619;48.562;8.910;2023-02-28T15:02:56;9.37;;;5.50;;
15043;SDS011;7619;48.562;8.910;2023-02-28T15:05:27;7.60;;;5.33;;
15043;SDS011;7619;48.562;8.910;2023-02-28T15:08:04;9.13;;;6.27;;
15043;SDS011;7619;48.562;8.910;2023-02-28T15:10:32;10.53;;;6.17;;
15043;SDS011;7619;48.562;8.910;2023-02-28T15:13:02;7.80;;;5.63;;
15043;SDS011;7619;48.562;8.910;2023-02-28T15:15:40;9.00;;;6.13;;
15043;SDS011;7619;48.562;8.910;2023-02-28T15:18:04;9.37;;;5.53;;
15043;SDS011;7619;48.562;8.910;2023-02-28T15:20:35;8.63;;;5.80;;
15043;SDS011;7619;48.562;8.910;2023-02-28T15:23:05;6.97;;;5.60;;
15043;SDS011;7619;48.562;8.910;2023-02-28T15:25:33;8.20;;;5.13;;
15043;SDS011;7619;48.562;8.910;2023-02-28T15:28:15;7.83;;;5.17;;
15043;SDS011;7619;48.562;8.910;2023-02-28T15:30:54;6.43;;;5.27;;
15043;SDS011;7619;48.562;8.910;2023-02-28T15:33:23;6.83;;;5.57;;
15043;SDS011;7619;48.562;8.910;2023-02-28T15:36:03;6.80;;;4.70;;
15043;SDS011;7619;48.562;8.910;2023-02-28T15:38:39;7.33;;;5.40;;
15043;SDS011;7619;48.562;8.910;2023-02-28T15:41:23;8.60;;;5.00;;
15043;SDS011;7619;48.562;8.910;2023-02-28T15:46:38;9.97;;;5.80;;
15043;SDS011;7619;48.562;8.910;2023-02-28T15:49:12;9.70;;;5.87;;
15043;SDS011;7619;48.562;8.910;2023-02-28T15:51:45;7.77;;;5.33;;
15043;SDS011;7619;48.562;8.910;2023-02-28T15:54:14;7.63;;;5.50;;
15043;SDS011;7619;48.562;8.910;2023-02-28T15:56:45;5.80;;;5.20;;
15043;SDS011;7619;48.562;8.910;2023-02-28T15:59:15;9.20;;;5.57;;
15043;SDS011;7619;48.562;8.910;2023-02-28T16:01:45;6.97;;;5.17;;
15043;SDS011;7619;48.562;8.910;2023-02-28T16:04:16;6.50;;;4.70;;
15043;SDS011;7619;48.562;8.910;2023-02-28T16:06:44;7.07;;;5.40;;
15043;SDS011;7619;48.562;8.910;2023-02-28T16:09:16;6.33;;;4.93;;
15043;SDS011;7619;48.562;8.910;2023-02-28T16:11:44;7.07;;;5.40;;
15043;SDS011;7619;48.562;8.910;2023-02-28T16:14:16;7.93;;;5.13;;